sensor_id;sensor_type;location;lat;lon;timestamp;temperature;humidity
7542;DHT22;3812;50.006;8.230;2022-09-29T00:01:07;6.60;99.90
7542;DHT22;3812;50.006;8.230;2022-09-29T00:03:35;6.60;99.90
7542;DHT22;3812;50.006;8.230;2022-09-29T00:06:02;6.70;99.90
7542;DHT22;3812;50.006;8.230;2022-09-29T00:08:31;6.70;99.90
7542;DHT22;3812;50.006;8.230;2022-09-29T00:10:58;6.70;99.90
7542;DHT22;3812;50.006;8.230;2022-09-29T00:13:25;6.60;99.90
7542;DHT22;3812;50.006;8.230;2022-09-29T00:15:58;6.60;99.90
7542;DHT22;3812;50.006;8.230;2022-09-29T00:18:26;6.60;99.90
7542;DHT22;3812;50.006;8.230;2022-09-29T00:20:58;6.50;99.90
7542;DHT22;3812;50.006;8.230;2022-09-29T00:23:25;6.40;99.90
7542;DHT22;3812;50.006;8.230;2022-09-29T00:26:04;6.40;99.90
7542;DHT22;3812;50.006;8.230;2022-09-29T00:28:32;6.30;99.90
7542;DHT22;3812;50.006;8.230;2022-09-29T00:31:01;6.30;99.90
7542;DHT22;3812;50.006;8.230;2022-09-29T00:33:29;6.20;99.90
7542;DHT22;3812;50.006;8.230;2022-09-29T00:35:58;6.10;99.90
7542;DHT22;3812;50.006;8.230;2022-09-29T00:38:26;6.00;99.90
7542;DHT22;3812;50.006;8.230;2022-09-29T00:40:53;5.90;99.90
7542;DHT22;3812;50.006;8.230;2022-09-29T00:43:23;5.90;99.90
7542;DHT22;3812;50.006;8.230;2022-09-29T00:45:52;5.80;99.90
7542;DHT22;3812;50.006;8.230;2022-09-29T00:48:28;5.70;99.90
7542;DHT22;3812;50.006;8.230;2022-09-29T00:50:57;5.70;99.90
7542;DHT22;3812;50.006;8.230;2022-09-29T00:53:26;5.70;99.90
7542;DHT22;3812;50.006;8.230;2022-09-29T00:55:56;5.80;99.90
7542;DHT22;3812;50.006;8.230;2022-09-29T00:58:28;5.80;99.90
7542;DHT22;3812;50.006;8.230;2022-09-29T01:00:57;5.80;99.90
7542;DHT22;3812;50.006;8.230;2022-09-29T01:03:30;5.90;99.90
7542;DHT22;3812;50.006;8.230;2022-09-29T01:06:02;5.80;99.90
7542;DHT22;3812;50.006;8.230;2022-09-29T01:08:36;5.80;99.90
7542;DHT22;3812;50.006;8.230;2022-09-29T01:11:05;5.80;99.90
7542;DHT22;3812;50.006;8.230;2022-09-29T01:13:33;5.70;99.90
7542;DHT22;3812;50.006;8.230;2022-09-29T01:16:00;5.60;99.90
7542;DHT22;3812;50.006;8.230;2022-09-29T01:18:29;5.60;99.90
7542;DHT22;3812;50.006;8.230;2022-09-29T01:21:09;5.70;1.00
7542;DHT22;3812;50.006;8.230;2022-09-29T01:29:52;5.40;99.90
7542;DHT22;3812;50.006;8.230;2022-09-29T01:32:28;5.30;99.90
7542;DHT22;3812;50.006;8.230;2022-09-29T01:35:05;5.30;1.00
7542;DHT22;3812;50.006;8.230;2022-09-29T01:37:43;5.30;1.00
7542;DHT22;3812;50.006;8.230;2022-09-29T01:40:15;5.30;1.00
7542;DHT22;3812;50.006;8.230;2022-09-29T01:42:50;5.30;1.00
7542;DHT22;3812;50.006;8.230;2022-09-29T01:45:23;5.30;1.00
7542;DHT22;3812;50.006;8.230;2022-09-29T01:47:55;5.30;1.00
7542;DHT22;3812;50.006;8.230;2022-09-29T01:50:27;5.30;1.00
7542;DHT22;3812;50.006;8.230;2022-09-29T01:53:00;5.20;1.00
7542;DHT22;3812;50.006;8.230;2022-09-29T01:55:30;5.20;1.00
7542;DHT22;3812;50.006;8.230;2022-09-29T01:58:01;5.20;1.00
7542;DHT22;3812;50.006;8.230;2022-09-29T02:00:36;5.20;1.00
7542;DHT22;3812;50.006;8.230;2022-09-29T02:03:10;5.10;1.00
7542;DHT22;3812;50.006;8.230;2022-09-29T02:05:43;5.10;1.00
7542;DHT22;3812;50.006;8.230;2022-09-29T02:08:15;5.20;1.00
7542;DHT22;3812;50.006;8.230;2022-09-29T02:10:47;5.20;1.00
7542;DHT22;3812;50.006;8.230;2022-09-29T02:13:17;5.10;1.00
7542;DHT22;3812;50.006;8.230;2022-09-29T02:15:49;5.10;1.00
7542;DHT22;3812;50.006;8.230;2022-09-29T02:18:21;5.10;1.00
7542;DHT22;3812;50.006;8.230;2022-09-29T02:20:49;5.00;1.00
7542;DHT22;3812;50.006;8.230;2022-09-29T02:23:16;4.90;1.00
7542;DHT22;3812;50.006;8.230;2022-09-29T02:25:46;4.90;1.00
7542;DHT22;3812;50.006;8.230;2022-09-29T02:28:15;4.90;1.00
7542;DHT22;3812;50.006;8.230;2022-09-29T02:30:43;4.90;1.00
7542;DHT22;3812;50.006;8.230;2022-09-29T02:33:19;4.90;1.00
7542;DHT22;3812;50.006;8.230;2022-09-29T02:35:58;4.90;1.00
7542;DHT22;3812;50.006;8.230;2022-09-29T02:38:34;4.90;1.00
7542;DHT22;3812;50.006;8.230;2022-09-29T02:41:06;4.90;1.00
7542;DHT22;3812;50.006;8.230;2022-09-29T02:43:53;4.90;1.00
7542;DHT22;3812;50.006;8.230;2022-09-29T02:46:33;4.90;1.00
7542;DHT22;3812;50.006;8.230;2022-09-29T02:49:14;4.90;1.00
7542;DHT22;3812;50.006;8.230;2022-09-29T02:51:47;4.80;1.00
7542;DHT22;3812;50.006;8.230;2022-09-29T02:54:25;5.00;1.00
7542;DHT22;3812;50.006;8.230;2022-09-29T02:56:59;5.00;1.00
7542;DHT22;3812;50.006;8.230;2022-09-29T02:59:33;5.10;1.00
7542;DHT22;3812;50.006;8.230;2022-09-29T03:02:02;5.10;1.00
7542;DHT22;3812;50.006;8.230;2022-09-29T03:04:30;5.00;1.00
7542;DHT22;3812;50.006;8.230;2022-09-29T03:06:57;5.00;1.00
7542;DHT22;3812;50.006;8.230;2022-09-29T03:09:24;5.00;1.00
7542;DHT22;3812;50.006;8.230;2022-09-29T03:11:51;5.10;1.00
7542;DHT22;3812;50.006;8.230;2022-09-29T03:14:18;5.00;1.00
7542;DHT22;3812;50.006;8.230;2022-09-29T03:16:45;5.00;1.00
7542;DHT22;3812;50.006;8.230;2022-09-29T03:19:12;4.90;1.00
7542;DHT22;3812;50.006;8.230;2022-09-29T03:21:40;4.80;1.00
7542;DHT22;3812;50.006;8.230;2022-09-29T03:24:07;4.70;1.00
7542;DHT22;3812;50.006;8.230;2022-09-29T03:26:34;4.70;1.00
7542;DHT22;3812;50.006;8.230;2022-09-29T03:29:01;4.60;1.00
7542;DHT22;3812;50.006;8.230;2022-09-29T03:31:28;4.50;1.00
7542;DHT22;3812;50.006;8.230;2022-09-29T03:33:55;4.50;1.00
7542;DHT22;3812;50.006;8.230;2022-09-29T03:36:22;4.60;1.00
7542;DHT22;3812;50.006;8.230;2022-09-29T03:38:50;4.60;1.00
7542;DHT22;3812;50.006;8.230;2022-09-29T03:41:17;4.60;1.00
7542;DHT22;3812;50.006;8.230;2022-09-29T03:43:44;4.60;1.00
7542;DHT22;3812;50.006;8.230;2022-09-29T03:46:11;4.60;1.00
7542;DHT22;3812;50.006;8.230;2022-09-29T03:48:38;4.50;1.00
7542;DHT22;3812;50.006;8.230;2022-09-29T03:51:06;4.40;1.00
7542;DHT22;3812;50.006;8.230;2022-09-29T03:53:33;4.30;1.00
7542;DHT22;3812;50.006;8.230;2022-09-29T03:56:02;4.30;1.00
7542;DHT22;3812;50.006;8.230;2022-09-29T03:58:30;4.40;1.00
7542;DHT22;3812;50.006;8.230;2022-09-29T04:00:57;4.60;1.00
7542;DHT22;3812;50.006;8.230;2022-09-29T04:03:24;4.70;1.00
7542;DHT22;3812;50.006;8.230;2022-09-29T04:05:51;4.90;1.00
7542;DHT22;3812;50.006;8.230;2022-09-29T04:08:18;4.80;1.00
7542;DHT22;3812;50.006;8.230;2022-09-29T04:10:45;4.80;1.00
7542;DHT22;3812;50.006;8.230;2022-09-29T04:13:14;4.80;1.00
7542;DHT22;3812;50.006;8.230;2022-09-29T04:15:41;4.80;1.00
7542;DHT22;3812;50.006;8.230;2022-09-29T04:18:08;4.90;1.00
7542;DHT22;3812;50.006;8.230;2022-09-29T04:20:36;5.10;99.50
7542;DHT22;3812;50.006;8.230;2022-09-29T04:23:04;5.20;99.90
7542;DHT22;3812;50.006;8.230;2022-09-29T04:25:31;5.30;99.90
7542;DHT22;3812;50.006;8.230;2022-09-29T04:27:58;5.30;99.90
7542;DHT22;3812;50.006;8.230;2022-09-29T04:30:26;5.40;99.90
7542;DHT22;3812;50.006;8.230;2022-09-29T04:32:53;5.40;99.90
7542;DHT22;3812;50.006;8.230;2022-09-29T04:35:20;5.50;99.90
7542;DHT22;3812;50.006;8.230;2022-09-29T04:37:48;5.50;99.90
7542;DHT22;3812;50.006;8.230;2022-09-29T04:40:14;5.60;1.00
7542;DHT22;3812;50.006;8.230;2022-09-29T04:42:42;5.60;1.00
7542;DHT22;3812;50.006;8.230;2022-09-29T04:45:09;5.60;1.00
7542;DHT22;3812;50.006;8.230;2022-09-29T04:47:38;5.60;1.00
7542;DHT22;3812;50.006;8.230;2022-09-29T04:50:06;5.60;1.00
7542;DHT22;3812;50.006;8.230;2022-09-29T04:52:34;5.60;1.00
7542;DHT22;3812;50.006;8.230;2022-09-29T04:55:02;5.60;1.00
7542;DHT22;3812;50.006;8.230;2022-09-29T04:57:29;5.60;1.00
7542;DHT22;3812;50.006;8.230;2022-09-29T04:59:56;5.60;1.00
7542;DHT22;3812;50.006;8.230;2022-09-29T05:02:23;5.60;1.00
7542;DHT22;3812;50.006;8.230;2022-09-29T05:04:51;5.60;1.00
7542;DHT22;3812;50.006;8.230;2022-09-29T05:07:18;5.60;1.00
7542;DHT22;3812;50.006;8.230;2022-09-29T05:09:45;5.60;1.00
7542;DHT22;3812;50.006;8.230;2022-09-29T05:12:12;5.60;1.00
7542;DHT22;3812;50.006;8.230;2022-09-29T05:14:39;5.60;1.00
7542;DHT22;3812;50.006;8.230;2022-09-29T05:17:06;5.70;1.00
7542;DHT22;3812;50.006;8.230;2022-09-29T05:19:33;5.70;1.00
7542;DHT22;3812;50.006;8.230;2022-09-29T05:22:02;5.70;1.00
7542;DHT22;3812;50.006;8.230;2022-09-29T05:24:29;5.70;1.00
7542;DHT22;3812;50.006;8.230;2022-09-29T05:26:56;5.70;1.00
7542;DHT22;3812;50.006;8.230;2022-09-29T05:29:23;5.60;1.00
7542;DHT22;3812;50.006;8.230;2022-09-29T05:31:50;5.60;1.00
7542;DHT22;3812;50.006;8.230;2022-09-29T05:34:17;5.60;1.00
7542;DHT22;3812;50.006;8.230;2022-09-29T05:36:44;5.50;1.00
7542;DHT22;3812;50.006;8.230;2022-09-29T05:39:12;5.50;1.00
7542;DHT22;3812;50.006;8.230;2022-09-29T05:41:39;5.50;1.00
7542;DHT22;3812;50.006;8.230;2022-09-29T05:44:06;5.50;1.00
7542;DHT22;3812;50.006;8.230;2022-09-29T05:46:34;5.60;1.00
7542;DHT22;3812;50.006;8.230;2022-09-29T05:49:01;5.70;1.00
7542;DHT22;3812;50.006;8.230;2022-09-29T05:51:28;5.70;1.00
7542;DHT22;3812;50.006;8.230;2022-09-29T05:53:55;5.70;1.00
7542;DHT22;3812;50.006;8.230;2022-09-29T05:56:25;5.60;1.00
7542;DHT22;3812;50.006;8.230;2022-09-29T05:58:53;5.70;1.00
7542;DHT22;3812;50.006;8.230;2022-09-29T06:01:21;5.60;1.00
7542;DHT22;3812;50.006;8.230;2022-09-29T06:03:49;5.70;1.00
7542;DHT22;3812;50.006;8.230;2022-09-29T06:06:18;5.70;1.00
7542;DHT22;3812;50.006;8.230;2022-09-29T06:08:46;5.80;1.00
7542;DHT22;3812;50.006;8.230;2022-09-29T06:11:15;5.90;1.00
7542;DHT22;3812;50.006;8.230;2022-09-29T06:13:45;5.90;1.00
7542;DHT22;3812;50.006;8.230;2022-09-29T06:16:12;6.00;1.00
7542;DHT22;3812;50.006;8.230;2022-09-29T06:18:40;6.10;1.00
7542;DHT22;3812;50.006;8.230;2022-09-29T06:21:09;6.10;1.00
7542;DHT22;3812;50.006;8.230;2022-09-29T06:23:36;6.20;1.00
7542;DHT22;3812;50.006;8.230;2022-09-29T06:26:07;6.30;1.00
7542;DHT22;3812;50.006;8.230;2022-09-29T06:28:34;6.40;1.00
7542;DHT22;3812;50.006;8.230;2022-09-29T06:31:05;6.50;1.00
7542;DHT22;3812;50.006;8.230;2022-09-29T06:33:34;6.70;1.00
7542;DHT22;3812;50.006;8.230;2022-09-29T06:36:03;6.80;1.00
7542;DHT22;3812;50.006;8.230;2022-09-29T06:38:53;6.90;1.00
7542;DHT22;3812;50.006;8.230;2022-09-29T06:41:21;6.90;1.00
7542;DHT22;3812;50.006;8.230;2022-09-29T06:43:48;6.90;1.00
7542;DHT22;3812;50.006;8.230;2022-09-29T06:46:17;7.10;1.00
7542;DHT22;3812;50.006;8.230;2022-09-29T06:48:44;7.10;1.00
7542;DHT22;3812;50.006;8.230;2022-09-29T06:51:11;7.10;1.00
7542;DHT22;3812;50.006;8.230;2022-09-29T06:53:39;6.70;1.00
7542;DHT22;3812;50.006;8.230;2022-09-29T06:56:07;6.70;1.00
7542;DHT22;3812;50.006;8.230;2022-09-29T06:58:34;6.80;1.00
7542;DHT22;3812;50.006;8.230;2022-09-29T07:01:02;6.80;1.00
7542;DHT22;3812;50.006;8.230;2022-09-29T07:03:32;6.90;1.00
7542;DHT22;3812;50.006;8.230;2022-09-29T07:06:01;6.80;1.00
7542;DHT22;3812;50.006;8.230;2022-09-29T07:08:28;7.00;1.00
7542;DHT22;3812;50.006;8.230;2022-09-29T07:10:56;7.10;1.00
7542;DHT22;3812;50.006;8.230;2022-09-29T07:13:24;7.10;1.00
7542;DHT22;3812;50.006;8.230;2022-09-29T07:15:52;7.30;1.00
7542;DHT22;3812;50.006;8.230;2022-09-29T07:18:19;7.50;1.00
7542;DHT22;3812;50.006;8.230;2022-09-29T07:20:48;7.60;1.00
7542;DHT22;3812;50.006;8.230;2022-09-29T07:23:15;7.70;1.00
7542;DHT22;3812;50.006;8.230;2022-09-29T07:25:44;7.80;1.00
7542;DHT22;3812;50.006;8.230;2022-09-29T07:28:12;8.00;1.00
7542;DHT22;3812;50.006;8.230;2022-09-29T07:30:39;8.00;1.00
7542;DHT22;3812;50.006;8.230;2022-09-29T07:33:06;7.90;99.90
7542;DHT22;3812;50.006;8.230;2022-09-29T07:35:33;8.10;99.90
7542;DHT22;3812;50.006;8.230;2022-09-29T07:38:01;8.10;99.90
7542;DHT22;3812;50.006;8.230;2022-09-29T07:40:28;8.30;99.90
7542;DHT22;3812;50.006;8.230;2022-09-29T07:42:55;8.60;67.90
7542;DHT22;3812;50.006;8.230;2022-09-29T07:45:25;8.80;1.00
7542;DHT22;3812;50.006;8.230;2022-09-29T07:47:52;9.10;1.00
7542;DHT22;3812;50.006;8.230;2022-09-29T07:50:21;9.20;1.00
7542;DHT22;3812;50.006;8.230;2022-09-29T07:52:49;9.30;1.00
7542;DHT22;3812;50.006;8.230;2022-09-29T07:55:18;9.40;1.00
7542;DHT22;3812;50.006;8.230;2022-09-29T07:57:46;9.40;1.00
7542;DHT22;3812;50.006;8.230;2022-09-29T08:00:14;8.60;1.00
7542;DHT22;3812;50.006;8.230;2022-09-29T08:02:41;8.30;1.00
7542;DHT22;3812;50.006;8.230;2022-09-29T08:05:09;8.70;1.00
7542;DHT22;3812;50.006;8.230;2022-09-29T08:07:36;9.10;1.00
7542;DHT22;3812;50.006;8.230;2022-09-29T08:10:03;8.90;1.00
7542;DHT22;3812;50.006;8.230;2022-09-29T08:12:32;9.00;1.00
7542;DHT22;3812;50.006;8.230;2022-09-29T08:14:59;9.40;1.00
7542;DHT22;3812;50.006;8.230;2022-09-29T08:17:25;9.70;99.90
7542;DHT22;3812;50.006;8.230;2022-09-29T08:19:52;9.90;99.90
7542;DHT22;3812;50.006;8.230;2022-09-29T08:22:19;10.10;99.90
7542;DHT22;3812;50.006;8.230;2022-09-29T08:24:46;10.10;99.90
7542;DHT22;3812;50.006;8.230;2022-09-29T08:27:13;10.30;99.90
7542;DHT22;3812;50.006;8.230;2022-09-29T08:29:42;10.40;99.90
7542;DHT22;3812;50.006;8.230;2022-09-29T08:32:09;10.70;99.90
7542;DHT22;3812;50.006;8.230;2022-09-29T08:34:36;10.90;99.90
7542;DHT22;3812;50.006;8.230;2022-09-29T08:37:03;11.10;99.90
7542;DHT22;3812;50.006;8.230;2022-09-29T08:39:30;11.10;99.90
7542;DHT22;3812;50.006;8.230;2022-09-29T08:42:04;11.10;99.90
7542;DHT22;3812;50.006;8.230;2022-09-29T08:44:36;11.20;99.90
7542;DHT22;3812;50.006;8.230;2022-09-29T08:47:18;10.90;99.90
7542;DHT22;3812;50.006;8.230;2022-09-29T08:49:51;11.20;99.90
7542;DHT22;3812;50.006;8.230;2022-09-29T08:52:23;11.30;99.90
7542;DHT22;3812;50.006;8.230;2022-09-29T08:54:56;11.20;99.90
7542;DHT22;3812;50.006;8.230;2022-09-29T08:57:25;11.00;99.90
7542;DHT22;3812;50.006;8.230;2022-09-29T08:59:54;11.00;99.90
7542;DHT22;3812;50.006;8.230;2022-09-29T09:02:49;11.40;99.90
7542;DHT22;3812;50.006;8.230;2022-09-29T09:05:33;11.70;99.90
7542;DHT22;3812;50.006;8.230;2022-09-29T09:08:14;11.80;99.90
7542;DHT22;3812;50.006;8.230;2022-09-29T09:10:48;12.10;99.90
7542;DHT22;3812;50.006;8.230;2022-09-29T09:13:25;12.20;99.90
7542;DHT22;3812;50.006;8.230;2022-09-29T09:16:15;12.60;99.90
7542;DHT22;3812;50.006;8.230;2022-09-29T09:18:59;12.10;99.90
7542;DHT22;3812;50.006;8.230;2022-09-29T09:21:35;11.60;99.90
7542;DHT22;3812;50.006;8.230;2022-09-29T09:24:11;11.80;99.90
7542;DHT22;3812;50.006;8.230;2022-09-29T09:26:42;12.10;99.90
7542;DHT22;3812;50.006;8.230;2022-09-29T09:29:15;12.60;99.90
7542;DHT22;3812;50.006;8.230;2022-09-29T09:31:47;13.10;99.90
7542;DHT22;3812;50.006;8.230;2022-09-29T09:34:20;13.60;99.90
7542;DHT22;3812;50.006;8.230;2022-09-29T09:36:51;14.00;99.90
7542;DHT22;3812;50.006;8.230;2022-09-29T09:39:21;14.50;99.90
7542;DHT22;3812;50.006;8.230;2022-09-29T09:41:52;14.60;99.90
7542;DHT22;3812;50.006;8.230;2022-09-29T09:44:24;14.00;99.90
7542;DHT22;3812;50.006;8.230;2022-09-29T09:46:55;14.00;99.90
7542;DHT22;3812;50.006;8.230;2022-09-29T09:49:28;14.20;99.90
7542;DHT22;3812;50.006;8.230;2022-09-29T09:52:00;14.20;99.90
7542;DHT22;3812;50.006;8.230;2022-09-29T09:54:32;14.30;99.90
7542;DHT22;3812;50.006;8.230;2022-09-29T10:00:02;14.40;99.90
7542;DHT22;3812;50.006;8.230;2022-09-29T10:02:42;14.40;99.90
7542;DHT22;3812;50.006;8.230;2022-09-29T10:05:13;14.60;98.30
7542;DHT22;3812;50.006;8.230;2022-09-29T10:07:41;14.40;96.50
7542;DHT22;3812;50.006;8.230;2022-09-29T10:10:15;14.30;94.50
7542;DHT22;3812;50.006;8.230;2022-09-29T10:12:43;14.30;92.20
7542;DHT22;3812;50.006;8.230;2022-09-29T10:15:19;14.30;90.00
7542;DHT22;3812;50.006;8.230;2022-09-29T10:17:53;14.60;87.80
7542;DHT22;3812;50.006;8.230;2022-09-29T10:20:33;15.00;85.50
7542;DHT22;3812;50.006;8.230;2022-09-29T10:26:07;15.80;73.50
7542;DHT22;3812;50.006;8.230;2022-09-29T10:28:40;16.30;58.80
7542;DHT22;3812;50.006;8.230;2022-09-29T10:31:21;16.50;43.60
7542;DHT22;3812;50.006;8.230;2022-09-29T10:33:51;16.40;35.50
7542;DHT22;3812;50.006;8.230;2022-09-29T10:36:22;16.40;35.10
7542;DHT22;3812;50.006;8.230;2022-09-29T10:38:51;16.50;30.00
7542;DHT22;3812;50.006;8.230;2022-09-29T10:41:18;17.20;26.70
7542;DHT22;3812;50.006;8.230;2022-09-29T10:43:47;17.40;19.70
7542;DHT22;3812;50.006;8.230;2022-09-29T10:46:35;17.90;15.90
7542;DHT22;3812;50.006;8.230;2022-09-29T10:49:08;18.20;4.20
7542;DHT22;3812;50.006;8.230;2022-09-29T10:51:38;18.30;2.40
7542;DHT22;3812;50.006;8.230;2022-09-29T10:54:07;18.30;1.00
7542;DHT22;3812;50.006;8.230;2022-09-29T10:56:35;18.20;1.00
7542;DHT22;3812;50.006;8.230;2022-09-29T10:59:03;18.20;1.00
7542;DHT22;3812;50.006;8.230;2022-09-29T11:01:32;17.20;1.00
7542;DHT22;3812;50.006;8.230;2022-09-29T11:04:03;17.60;1.00
7542;DHT22;3812;50.006;8.230;2022-09-29T11:06:33;17.80;1.00
7542;DHT22;3812;50.006;8.230;2022-09-29T11:09:04;18.20;1.00
7542;DHT22;3812;50.006;8.230;2022-09-29T11:11:33;18.40;1.00
7542;DHT22;3812;50.006;8.230;2022-09-29T11:14:01;18.00;1.00
7542;DHT22;3812;50.006;8.230;2022-09-29T11:16:30;17.40;1.00
7542;DHT22;3812;50.006;8.230;2022-09-29T11:19:07;17.40;1.00
7542;DHT22;3812;50.006;8.230;2022-09-29T11:21:54;17.60;1.00
7542;DHT22;3812;50.006;8.230;2022-09-29T11:24:42;17.80;1.00
7542;DHT22;3812;50.006;8.230;2022-09-29T11:27:18;18.00;1.00
7542;DHT22;3812;50.006;8.230;2022-09-29T11:29:54;18.30;1.00
7542;DHT22;3812;50.006;8.230;2022-09-29T11:32:34;18.70;1.00
7542;DHT22;3812;50.006;8.230;2022-09-29T11:35:18;18.80;1.00
7542;DHT22;3812;50.006;8.230;2022-09-29T11:40:55;18.90;1.00
7542;DHT22;3812;50.006;8.230;2022-09-29T11:43:41;18.80;1.00
7542;DHT22;3812;50.006;8.230;2022-09-29T11:46:20;18.50;1.00
7542;DHT22;3812;50.006;8.230;2022-09-29T11:49:08;18.30;1.00
7542;DHT22;3812;50.006;8.230;2022-09-29T11:51:55;18.40;1.00
7542;DHT22;3812;50.006;8.230;2022-09-29T11:54:40;18.70;1.00
7542;DHT22;3812;50.006;8.230;2022-09-29T11:57:18;19.80;1.00
7542;DHT22;3812;50.006;8.230;2022-09-29T12:00:02;20.50;1.00
7542;DHT22;3812;50.006;8.230;2022-09-29T12:02:56;20.10;1.00
7542;DHT22;3812;50.006;8.230;2022-09-29T12:05:30;20.70;1.00
7542;DHT22;3812;50.006;8.230;2022-09-29T12:08:10;20.70;1.00
7542;DHT22;3812;50.006;8.230;2022-09-29T12:10:51;20.80;1.00
7542;DHT22;3812;50.006;8.230;2022-09-29T12:13:29;21.30;1.00
7542;DHT22;3812;50.006;8.230;2022-09-29T12:16:06;20.70;1.00
7542;DHT22;3812;50.006;8.230;2022-09-29T12:18:39;20.40;1.00
7542;DHT22;3812;50.006;8.230;2022-09-29T12:21:07;20.10;1.00
7542;DHT22;3812;50.006;8.230;2022-09-29T12:23:38;20.00;1.00
7542;DHT22;3812;50.006;8.230;2022-09-29T12:26:08;19.80;1.00
7542;DHT22;3812;50.006;8.230;2022-09-29T12:28:41;20.50;1.00
7542;DHT22;3812;50.006;8.230;2022-09-29T12:31:14;20.50;1.00
7542;DHT22;3812;50.006;8.230;2022-09-29T12:33:44;20.10;1.00
7542;DHT22;3812;50.006;8.230;2022-09-29T12:36:24;20.00;1.00
7542;DHT22;3812;50.006;8.230;2022-09-29T12:39:33;20.40;1.00
7542;DHT22;3812;50.006;8.230;2022-09-29T12:42:19;21.10;1.00
7542;DHT22;3812;50.006;8.230;2022-09-29T12:44:55;21.40;1.00
7542;DHT22;3812;50.006;8.230;2022-09-29T12:47:32;21.20;1.00
7542;DHT22;3812;50.006;8.230;2022-09-29T12:50:08;21.60;1.00
7542;DHT22;3812;50.006;8.230;2022-09-29T12:52:40;22.50;1.00
7542;DHT22;3812;50.006;8.230;2022-09-29T12:55:17;23.20;1.00
7542;DHT22;3812;50.006;8.230;2022-09-29T12:57:48;23.30;1.00
7542;DHT22;3812;50.006;8.230;2022-09-29T13:00:18;24.10;1.00
7542;DHT22;3812;50.006;8.230;2022-09-29T13:03:08;24.50;1.00
7542;DHT22;3812;50.006;8.230;2022-09-29T13:06:00;24.80;1.00
7542;DHT22;3812;50.006;8.230;2022-09-29T13:08:43;24.60;1.00
7542;DHT22;3812;50.006;8.230;2022-09-29T13:11:38;23.50;1.00
7542;DHT22;3812;50.006;8.230;2022-09-29T13:14:37;23.00;1.00
7542;DHT22;3812;50.006;8.230;2022-09-29T13:17:22;22.90;1.00
7542;DHT22;3812;50.006;8.230;2022-09-29T13:20:14;21.50;1.00
7542;DHT22;3812;50.006;8.230;2022-09-29T13:26:04;23.50;1.00
7542;DHT22;3812;50.006;8.230;2022-09-29T13:28:39;23.40;1.00
7542;DHT22;3812;50.006;8.230;2022-09-29T13:31:11;23.40;1.00
7542;DHT22;3812;50.006;8.230;2022-09-29T13:33:46;23.20;1.00
7542;DHT22;3812;50.006;8.230;2022-09-29T13:36:21;22.50;1.00
7542;DHT22;3812;50.006;8.230;2022-09-29T13:38:54;22.70;1.00
7542;DHT22;3812;50.006;8.230;2022-09-29T13:41:34;22.60;1.00
7542;DHT22;3812;50.006;8.230;2022-09-29T13:44:17;21.90;1.00
7542;DHT22;3812;50.006;8.230;2022-09-29T13:46:45;21.80;1.00
7542;DHT22;3812;50.006;8.230;2022-09-29T13:49:21;21.50;1.00
7542;DHT22;3812;50.006;8.230;2022-09-29T13:51:51;21.80;1.00
7542;DHT22;3812;50.006;8.230;2022-09-29T13:54:34;22.10;1.00
7542;DHT22;3812;50.006;8.230;2022-09-29T13:57:22;22.50;1.00
7542;DHT22;3812;50.006;8.230;2022-09-29T14:00:23;22.10;1.00
7542;DHT22;3812;50.006;8.230;2022-09-29T14:03:05;22.00;1.00
7542;DHT22;3812;50.006;8.230;2022-09-29T14:06:12;21.20;1.00
7542;DHT22;3812;50.006;8.230;2022-09-29T14:08:43;20.90;1.00
7542;DHT22;3812;50.006;8.230;2022-09-29T14:11:17;20.50;1.00
7542;DHT22;3812;50.006;8.230;2022-09-29T14:13:52;20.30;1.00
7542;DHT22;3812;50.006;8.230;2022-09-29T14:19:36;20.50;1.00
7542;DHT22;3812;50.006;8.230;2022-09-29T14:25:32;20.10;1.00
7542;DHT22;3812;50.006;8.230;2022-09-29T14:28:04;20.10;1.00
7542;DHT22;3812;50.006;8.230;2022-09-29T14:30:41;19.60;1.00
7542;DHT22;3812;50.006;8.230;2022-09-29T14:33:12;19.30;1.00
7542;DHT22;3812;50.006;8.230;2022-09-29T14:35:43;19.50;1.00
7542;DHT22;3812;50.006;8.230;2022-09-29T14:38:16;19.50;1.00
7542;DHT22;3812;50.006;8.230;2022-09-29T14:40:54;19.20;1.00
7542;DHT22;3812;50.006;8.230;2022-09-29T14:43:25;18.80;1.00
7542;DHT22;3812;50.006;8.230;2022-09-29T14:46:20;18.50;1.00
7542;DHT22;3812;50.006;8.230;2022-09-29T14:49:36;18.50;1.00
7542;DHT22;3812;50.006;8.230;2022-09-29T14:52:31;18.40;1.00
7542;DHT22;3812;50.006;8.230;2022-09-29T14:55:07;18.50;1.00
7542;DHT22;3812;50.006;8.230;2022-09-29T14:57:57;18.60;1.00
7542;DHT22;3812;50.006;8.230;2022-09-29T15:00:33;18.60;1.00
7542;DHT22;3812;50.006;8.230;2022-09-29T15:03:07;18.50;1.00
7542;DHT22;3812;50.006;8.230;2022-09-29T15:05:35;18.30;1.00
7542;DHT22;3812;50.006;8.230;2022-09-29T15:08:21;18.10;1.00
7542;DHT22;3812;50.006;8.230;2022-09-29T15:10:50;17.80;1.00
7542;DHT22;3812;50.006;8.230;2022-09-29T15:13:22;17.60;1.00
7542;DHT22;3812;50.006;8.230;2022-09-29T15:15:54;17.40;1.00
7542;DHT22;3812;50.006;8.230;2022-09-29T15:18:35;17.20;1.00
7542;DHT22;3812;50.006;8.230;2022-09-29T15:21:14;16.90;1.00
7542;DHT22;3812;50.006;8.230;2022-09-29T15:24:05;16.80;1.00
7542;DHT22;3812;50.006;8.230;2022-09-29T15:26:40;16.70;1.00
7542;DHT22;3812;50.006;8.230;2022-09-29T15:29:13;16.70;1.00
7542;DHT22;3812;50.006;8.230;2022-09-29T15:31:43;16.90;1.00
7542;DHT22;3812;50.006;8.230;2022-09-29T15:34:14;17.00;1.00
7542;DHT22;3812;50.006;8.230;2022-09-29T15:36:46;17.00;1.00
7542;DHT22;3812;50.006;8.230;2022-09-29T15:39:39;16.90;1.00
7542;DHT22;3812;50.006;8.230;2022-09-29T15:42:13;16.70;1.00
7542;DHT22;3812;50.006;8.230;2022-09-29T15:44:45;16.60;1.00
7542;DHT22;3812;50.006;8.230;2022-09-29T15:47:23;16.40;1.00
7542;DHT22;3812;50.006;8.230;2022-09-29T15:49:52;16.50;1.00
7542;DHT22;3812;50.006;8.230;2022-09-29T15:52:19;16.50;1.00
7542;DHT22;3812;50.006;8.230;2022-09-29T15:54:52;16.50;1.00
7542;DHT22;3812;50.006;8.230;2022-09-29T15:57:30;16.40;1.00
7542;DHT22;3812;50.006;8.230;2022-09-29T16:03:21;16.70;1.00
7542;DHT22;3812;50.006;8.230;2022-09-29T16:05:58;17.30;1.00
7542;DHT22;3812;50.006;8.230;2022-09-29T16:08:27;18.00;1.00
7542;DHT22;3812;50.006;8.230;2022-09-29T16:10:56;19.50;1.00
7542;DHT22;3812;50.006;8.230;2022-09-29T16:13:27;21.70;1.00
7542;DHT22;3812;50.006;8.230;2022-09-29T16:15:57;23.50;1.00
7542;DHT22;3812;50.006;8.230;2022-09-29T16:18:28;24.50;1.00
7542;DHT22;3812;50.006;8.230;2022-09-29T16:20:57;25.30;1.00
7542;DHT22;3812;50.006;8.230;2022-09-29T16:23:27;25.20;1.00
7542;DHT22;3812;50.006;8.230;2022-09-29T16:26:15;23.90;1.00
7542;DHT22;3812;50.006;8.230;2022-09-29T16:29:04;21.90;1.00
7542;DHT22;3812;50.006;8.230;2022-09-29T16:31:33;20.00;1.00
7542;DHT22;3812;50.006;8.230;2022-09-29T16:34:01;18.60;1.00
7542;DHT22;3812;50.006;8.230;2022-09-29T16:36:28;17.70;1.00
7542;DHT22;3812;50.006;8.230;2022-09-29T16:38:59;16.80;1.00
7542;DHT22;3812;50.006;8.230;2022-09-29T16:41:29;16.00;1.00
7542;DHT22;3812;50.006;8.230;2022-09-29T16:44:10;15.40;1.00
7542;DHT22;3812;50.006;8.230;2022-09-29T16:46:44;14.90;1.00
7542;DHT22;3812;50.006;8.230;2022-09-29T16:49:14;14.50;1.00
7542;DHT22;3812;50.006;8.230;2022-09-29T16:51:44;14.20;1.00
7542;DHT22;3812;50.006;8.230;2022-09-29T16:54:17;14.00;1.00
7542;DHT22;3812;50.006;8.230;2022-09-29T16:56:47;13.80;1.00
7542;DHT22;3812;50.006;8.230;2022-09-29T16:59:17;13.70;1.00
7542;DHT22;3812;50.006;8.230;2022-09-29T17:01:46;13.50;1.00
7542;DHT22;3812;50.006;8.230;2022-09-29T17:04:13;13.30;1.00
7542;DHT22;3812;50.006;8.230;2022-09-29T17:06:44;13.00;1.00
7542;DHT22;3812;50.006;8.230;2022-09-29T17:09:18;12.80;1.00
7542;DHT22;3812;50.006;8.230;2022-09-29T17:11:45;12.60;1.00
7542;DHT22;3812;50.006;8.230;2022-09-29T17:14:15;12.40;1.00
7542;DHT22;3812;50.006;8.230;2022-09-29T17:16:44;12.30;3.90
7542;DHT22;3812;50.006;8.230;2022-09-29T17:19:11;12.10;8.40
7542;DHT22;3812;50.006;8.230;2022-09-29T17:21:38;12.00;7.20
7542;DHT22;3812;50.006;8.230;2022-09-29T17:24:04;11.90;16.40